createdAt,value
2022-11-05T00:00:30.547Z,8.70
2022-11-05T00:03:16.270Z,8.60
2022-11-05T00:06:10.987Z,8.60
2022-11-05T00:08:58.466Z,8.60
2022-11-05T00:11:40.373Z,8.60
2022-11-05T00:14:25.653Z,8.50
2022-11-05T00:16:53.508Z,8.50
2022-11-05T00:19:21.413Z,8.50
2022-11-05T00:22:06.917Z,8.50
2022-11-05T00:24:53.806Z,8.40
2022-11-05T00:27:21.682Z,8.40
2022-11-05T00:29:49.599Z,8.40
2022-11-05T00:32:17.455Z,8.40
2022-11-05T00:34:45.337Z,8.40
2022-11-05T00:37:13.202Z,8.40
2022-11-05T00:39:42.413Z,8.30
2022-11-05T00:42:27.896Z,8.30
2022-11-05T00:45:04.977Z,8.30
2022-11-05T00:47:57.071Z,8.30
2022-11-05T00:50:25.565Z,8.20
2022-11-05T00:53:07.903Z,8.20
2022-11-05T00:55:39.716Z,8.20
2022-11-05T00:58:09.172Z,8.20
2022-11-05T01:00:39.093Z,8.10
2022-11-05T01:03:09.922Z,8.10
2022-11-05T01:05:41.516Z,8.10
2022-11-05T01:08:10.016Z,8.10
2022-11-05T01:10:42.724Z,8.10
2022-11-05T01:13:13.145Z,8.00
2022-11-05T01:15:41.826Z,8.00
2022-11-05T01:18:09.927Z,8.00
2022-11-05T01:20:38.163Z,8.00
2022-11-05T01:23:11.950Z,8.00
2022-11-05T01:25:43.036Z,8.10
2022-11-05T01:28:11.248Z,8.10
2022-11-05T01:30:39.447Z,8.10
2022-11-05T01:33:07.860Z,8.10
2022-11-05T01:35:35.951Z,8.10
2022-11-05T01:38:03.835Z,8.10
2022-11-05T01:40:31.758Z,8.10
2022-11-05T01:43:00.992Z,8.20
2022-11-05T01:45:29.931Z,8.20
2022-11-05T01:48:05.425Z,8.10
2022-11-05T01:50:42.331Z,8.20
2022-11-05T01:53:16.777Z,8.20
2022-11-05T01:55:49.115Z,8.20
2022-11-05T01:58:22.443Z,8.20
2022-11-05T02:00:50.452Z,8.20
2022-11-05T02:03:19.267Z,8.20
2022-11-05T02:05:49.154Z,8.20
2022-11-05T02:08:27.105Z,8.20
2022-11-05T02:10:55.467Z,8.20
2022-11-05T02:13:24.737Z,8.10
2022-11-05T02:16:00.165Z,8.10
2022-11-05T02:18:37.506Z,8.10
2022-11-05T02:21:28.556Z,8.10
2022-11-05T02:24:17.047Z,8.10
2022-11-05T02:27:08.185Z,8.00
2022-11-05T02:30:05.083Z,8.00
2022-11-05T02:32:58.957Z,8.00
2022-11-05T02:35:42.703Z,8.00
2022-11-05T02:38:14.217Z,7.90
2022-11-05T02:40:51.327Z,7.90
2022-11-05T02:43:29.557Z,7.90
2022-11-05T02:46:04.402Z,7.90
2022-11-05T02:48:44.935Z,7.90
2022-11-05T02:51:18.081Z,7.90
2022-11-05T02:53:50.873Z,7.80
2022-11-05T02:56:23.581Z,7.80
2022-11-05T02:58:51.518Z,7.90
2022-11-05T03:01:19.501Z,7.80
2022-11-05T03:03:52.711Z,7.80
2022-11-05T03:06:44.341Z,7.80
2022-11-05T03:09:36.955Z,7.90
2022-11-05T03:12:18.870Z,7.90
2022-11-05T03:14:56.907Z,7.90
2022-11-05T03:17:34.939Z,7.90
2022-11-05T03:20:16.134Z,7.90
2022-11-05T03:22:50.518Z,7.90
2022-11-05T03:25:23.947Z,7.90
2022-11-05T03:27:57.460Z,8.00
2022-11-05T03:30:26.338Z,7.90
2022-11-05T03:32:59.271Z,7.90
2022-11-05T03:35:32.546Z,8.00
2022-11-05T03:38:03.731Z,8.00
2022-11-05T03:40:36.179Z,8.00
2022-11-05T03:43:07.760Z,8.00
2022-11-05T03:45:39.422Z,8.00
2022-11-05T03:48:11.494Z,8.10
2022-11-05T03:50:47.246Z,8.10
2022-11-05T03:53:18.035Z,8.10
2022-11-05T03:55:53.613Z,8.10
2022-11-05T03:58:23.486Z,8.10
2022-11-05T04:00:52.259Z,8.20
2022-11-05T04:03:20.246Z,8.20
2022-11-05T04:06:10.283Z,8.20
2022-11-05T04:08:55.918Z,8.20
2022-11-05T04:11:41.586Z,8.30
2022-11-05T04:14:09.490Z,8.30
2022-11-05T04:16:54.991Z,8.30
2022-11-05T04:19:36.780Z,8.30
2022-11-05T04:22:23.729Z,8.30
2022-11-05T04:24:51.607Z,8.30
2022-11-05T04:27:19.599Z,8.40
2022-11-05T04:30:04.858Z,8.40
2022-11-05T04:32:32.739Z,8.40
2022-11-05T04:35:00.648Z,8.40
2022-11-05T04:37:29.881Z,8.40
2022-11-05T04:39:57.779Z,8.40
2022-11-05T04:42:25.680Z,8.40
2022-11-05T04:44:53.539Z,8.40
2022-11-05T04:47:21.438Z,8.40
2022-11-05T04:49:49.345Z,8.40
2022-11-05T04:52:17.921Z,8.40
2022-11-05T04:54:47.141Z,8.40
2022-11-05T04:57:15.023Z,8.40
2022-11-05T04:59:42.907Z,8.40
2022-11-05T05:02:10.913Z,8.30
2022-11-05T05:04:38.868Z,8.30
2022-11-05T05:07:06.731Z,8.30
2022-11-05T05:09:34.672Z,8.30
2022-11-05T05:12:03.987Z,8.30
2022-11-05T05:14:31.954Z,8.30
2022-11-05T05:17:08.551Z,8.30
2022-11-05T05:19:56.498Z,8.30
2022-11-05T05:22:23.372Z,8.20
2022-11-05T05:24:52.916Z,8.20
2022-11-05T05:27:23.398Z,8.20
2022-11-05T05:29:51.458Z,8.20
2022-11-05T05:32:19.349Z,8.20
2022-11-05T05:34:47.287Z,8.20
2022-11-05T05:37:15.204Z,8.20
2022-11-05T05:39:44.544Z,8.20
2022-11-05T05:42:12.609Z,8.20
2022-11-05T05:44:41.877Z,8.10
2022-11-05T05:47:09.766Z,8.10
2022-11-05T05:49:37.724Z,8.10
2022-11-05T05:52:06.053Z,8.10
2022-11-05T05:54:41.340Z,8.10
2022-11-05T05:57:10.499Z,8.20
2022-11-05T05:59:38.427Z,8.20
2022-11-05T06:02:07.796Z,8.20
2022-11-05T06:04:35.755Z,8.10
2022-11-05T06:07:03.623Z,8.10
2022-11-05T06:09:31.554Z,8.10
2022-11-05T06:11:59.469Z,8.10
2022-11-05T06:14:27.386Z,8.10
2022-11-05T06:16:55.275Z,8.10
2022-11-05T06:19:24.557Z,8.10
2022-11-05T06:21:52.430Z,8.10
2022-11-05T06:24:20.353Z,8.10
2022-11-05T06:26:48.231Z,8.10
2022-11-05T06:29:16.209Z,8.10
2022-11-05T06:31:44.093Z,8.10
2022-11-05T06:34:11.970Z,8.10
2022-11-05T06:36:41.359Z,8.10
2022-11-05T06:39:11.174Z,8.10
2022-11-05T06:42:03.863Z,8.10
2022-11-05T06:44:26.962Z,8.10
2022-11-05T06:46:54.855Z,8.10
2022-11-05T06:49:24.539Z,8.10
2022-11-05T06:51:54.200Z,8.10
2022-11-05T06:54:22.361Z,8.10
2022-11-05T06:56:50.235Z,8.10
2022-11-05T06:59:18.109Z,8.10
2022-11-05T07:01:46.151Z,8.10
2022-11-05T07:04:14.255Z,8.10
2022-11-05T07:06:42.334Z,8.10
2022-11-05T07:09:11.558Z,8.10
2022-11-05T07:11:39.440Z,8.10
2022-11-05T07:14:07.330Z,8.10
2022-11-05T07:16:35.277Z,8.10
2022-11-05T07:19:03.874Z,8.10
2022-11-05T07:21:31.975Z,8.10
2022-11-05T07:23:59.895Z,8.10
2022-11-05T07:26:34.261Z,8.00
2022-11-05T07:29:02.526Z,8.10
2022-11-05T07:31:30.471Z,8.00
2022-11-05T07:33:59.211Z,8.10
2022-11-05T07:36:27.075Z,8.10
2022-11-05T07:38:59.858Z,8.10
2022-11-05T07:41:29.768Z,8.10
2022-11-05T07:43:57.752Z,8.10
2022-11-05T07:46:25.656Z,8.10
2022-11-05T07:48:53.546Z,8.10
2022-11-05T07:51:21.484Z,8.10
2022-11-05T07:53:49.412Z,8.20
2022-11-05T07:56:17.840Z,8.20
2022-11-05T07:58:47.145Z,8.20
2022-11-05T08:01:15.144Z,8.20
2022-11-05T08:03:43.188Z,8.20
2022-11-05T08:06:11.203Z,8.20
2022-11-05T08:08:39.083Z,8.20
2022-11-05T08:11:07.710Z,8.30
2022-11-05T08:13:36.428Z,8.30
2022-11-05T08:16:07.676Z,8.30
2022-11-05T08:18:35.951Z,8.40
2022-11-05T08:21:05.958Z,8.40
2022-11-05T08:23:34.476Z,8.40
2022-11-05T08:26:04.532Z,8.50
2022-11-05T08:28:32.715Z,8.50
2022-11-05T08:31:00.614Z,8.60
2022-11-05T08:33:31.369Z,8.60
2022-11-05T08:36:03.427Z,8.60
2022-11-05T08:38:31.395Z,8.60
2022-11-05T08:41:00.409Z,8.70
2022-11-05T08:43:28.443Z,8.70
2022-11-05T08:45:56.549Z,8.70
2022-11-05T08:48:24.471Z,8.80
2022-11-05T08:50:53.759Z,8.80
2022-11-05T08:53:21.729Z,8.80
2022-11-05T08:55:51.395Z,8.90
2022-11-05T08:58:20.668Z,8.90
2022-11-05T09:00:50.789Z,8.90
2022-11-05T09:03:19.090Z,8.90
2022-11-05T09:05:47.136Z,9.00
2022-11-05T09:08:18.436Z,9.00
2022-11-05T09:10:47.158Z,9.00
2022-11-05T09:13:19.504Z,9.10
2022-11-05T09:15:48.748Z,9.10
2022-11-05T09:18:18.063Z,9.10
2022-11-05T09:20:46.324Z,9.20
2022-11-05T09:23:16.248Z,9.20
2022-11-05T09:25:44.741Z,9.30
2022-11-05T09:28:16.790Z,9.40
2022-11-05T09:30:46.925Z,9.40
2022-11-05T09:33:15.314Z,9.50
2022-11-05T09:35:43.899Z,9.50
2022-11-05T09:38:12.169Z,9.60
2022-11-05T09:40:45.920Z,9.60
2022-11-05T09:43:20.451Z,9.70
2022-11-05T09:45:52.524Z,9.80
2022-11-05T09:48:24.467Z,9.80
2022-11-05T09:50:54.490Z,9.90
2022-11-05T09:53:24.440Z,9.90
2022-11-05T09:55:57.295Z,10.00
2022-11-05T09:58:38.499Z,10.00
2022-11-05T10:01:10.462Z,10.10
2022-11-05T10:03:45.980Z,10.10
2022-11-05T10:06:20.855Z,10.20
2022-11-05T10:08:53.723Z,10.30
2022-11-05T10:11:30.029Z,10.30
2022-11-05T10:14:03.943Z,10.30
2022-11-05T10:16:35.649Z,10.40
2022-11-05T10:19:10.227Z,10.40
2022-11-05T10:22:04.931Z,10.40
2022-11-05T10:24:26.756Z,10.50
2022-11-05T10:26:56.814Z,10.50
2022-11-05T10:29:32.204Z,10.60
2022-11-05T10:32:01.845Z,10.70
2022-11-05T10:34:33.634Z,10.70
2022-11-05T10:37:01.842Z,10.70
2022-11-05T10:39:32.229Z,10.70
2022-11-05T10:42:14.861Z,10.80
2022-11-05T10:44:48.849Z,10.80
2022-11-05T10:47:36.199Z,10.80
2022-11-05T10:50:06.203Z,10.90
2022-11-05T10:52:36.776Z,10.90
2022-11-05T10:55:16.206Z,10.90
2022-11-05T10:57:47.779Z,11.00
2022-11-05T11:00:24.755Z,11.00
2022-11-05T11:02:54.645Z,11.00
2022-11-05T11:05:27.012Z,11.00
2022-11-05T11:07:59.699Z,11.10
2022-11-05T11:10:28.474Z,11.10
2022-11-05T11:12:58.647Z,11.10
2022-11-05T11:15:29.274Z,11.20
2022-11-05T11:17:57.548Z,11.20
2022-11-05T11:20:28.776Z,11.20
2022-11-05T11:23:09.549Z,11.30
2022-11-05T11:25:43.356Z,11.30
2022-11-05T11:28:19.900Z,11.40
2022-11-05T11:30:50.834Z,11.40
2022-11-05T11:33:24.455Z,11.40
2022-11-05T11:35:52.508Z,11.50
2022-11-05T11:38:20.650Z,11.50
2022-11-05T11:40:48.602Z,11.60
2022-11-05T11:43:26.954Z,11.60
2022-11-05T11:46:03.708Z,11.70
2022-11-05T11:48:35.250Z,11.70
2022-11-05T11:51:19.887Z,11.70
2022-11-05T11:53:49.830Z,11.80
2022-11-05T11:56:19.734Z,11.80
2022-11-05T11:58:50.989Z,11.90
2022-11-05T12:01:58.822Z,11.90
2022-11-05T12:04:51.176Z,11.90
2022-11-05T12:07:35.147Z,11.90
2022-11-05T12:10:18.684Z,12.00
2022-11-05T12:13:10.089Z,12.00
2022-11-05T12:15:49.160Z,12.00
2022-11-05T12:18:26.097Z,12.00
2022-11-05T12:21:07.824Z,12.10
2022-11-05T12:23:49.046Z,12.00
2022-11-05T12:26:25.665Z,12.10
2022-11-05T12:29:23.865Z,12.10
2022-11-05T12:32:03.945Z,12.10
2022-11-05T12:34:50.553Z,12.10
2022-11-05T12:37:29.617Z,12.10
2022-11-05T12:40:11.947Z,12.10
2022-11-05T12:42:56.000Z,12.10
2022-11-05T12:45:37.664Z,12.10
2022-11-05T12:48:28.282Z,12.10
2022-11-05T12:51:07.114Z,12.10
2022-11-05T12:53:46.700Z,12.10
2022-11-05T12:56:19.811Z,12.20
2022-11-05T12:58:54.943Z,12.20
2022-11-05T13:01:32.482Z,12.20
2022-11-05T13:04:06.854Z,12.20
2022-11-05T13:06:40.230Z,12.20
2022-11-05T13:09:13.450Z,12.20
2022-11-05T13:11:46.155Z,12.30
2022-11-05T13:14:18.631Z,12.30
2022-11-05T13:16:50.431Z,12.40
2022-11-05T13:19:23.469Z,12.40
2022-11-05T13:21:55.722Z,12.40
2022-11-05T13:24:27.816Z,12.30
2022-11-05T13:27:00.442Z,12.30
2022-11-05T13:29:35.191Z,12.30
2022-11-05T13:32:13.629Z,12.30
2022-11-05T13:34:42.949Z,12.30
2022-11-05T13:37:30.074Z,12.30
2022-11-05T13:40:02.598Z,12.30
2022-11-05T13:42:58.557Z,12.30
2022-11-05T13:46:05.822Z,12.20
2022-11-05T13:49:06.799Z,12.20
2022-11-05T13:51:55.732Z,12.20
2022-11-05T13:55:01.063Z,12.20
2022-11-05T13:57:57.097Z,12.20
2022-11-05T14:00:26.999Z,12.20
2022-11-05T14:02:57.916Z,12.20
2022-11-05T14:05:30.530Z,12.20
2022-11-05T14:08:02.075Z,12.20
2022-11-05T14:10:36.451Z,12.10
2022-11-05T14:13:17.166Z,12.10
2022-11-05T14:16:01.336Z,12.10
2022-11-05T14:18:44.822Z,12.00
2022-11-05T14:21:45.363Z,12.00
2022-11-05T14:24:40.185Z,12.00
2022-11-05T14:27:33.788Z,12.00
2022-11-05T14:30:02.034Z,11.90
2022-11-05T14:32:45.508Z,11.90
2022-11-05T14:35:37.564Z,11.90
2022-11-05T14:38:07.626Z,11.90
2022-11-05T14:40:39.580Z,11.90
2022-11-05T14:43:17.591Z,11.90
2022-11-05T14:45:55.406Z,11.90
2022-11-05T14:48:32.090Z,11.90
2022-11-05T14:51:00.650Z,11.90
2022-11-05T14:53:32.982Z,11.80
2022-11-05T14:56:06.401Z,11.80
2022-11-05T14:58:36.568Z,11.80
2022-11-05T15:01:07.066Z,11.80
2022-11-05T15:04:00.455Z,11.80
2022-11-05T15:06:33.998Z,11.80
2022-11-05T15:09:27.829Z,11.80
2022-11-05T15:12:17.678Z,11.70
2022-11-05T15:14:58.352Z,11.70
2022-11-05T15:17:30.175Z,11.70
2022-11-05T15:20:08.660Z,11.70
2022-11-05T15:22:40.684Z,11.70
2022-11-05T15:25:18.838Z,11.70
2022-11-05T15:59:01.588Z,11.70
2022-11-05T16:16:48.264Z,11.50
2022-11-05T16:19:40.169Z,11.30
2022-11-05T16:22:09.181Z,11.30
2022-11-05T16:24:37.141Z,11.30
2022-11-05T16:29:37.066Z,11.20
2022-11-05T16:32:08.252Z,11.20
2022-11-05T16:34:39.198Z,11.20
2022-11-05T16:42:37.050Z,11.20
2022-11-05T16:45:07.996Z,11.20
2022-11-05T20:11:53.751Z,11.30
2022-11-05T20:14:21.902Z,11.30
2022-11-05T20:16:50.679Z,11.30
2022-11-05T20:19:21.349Z,11.30
2022-11-05T20:21:49.619Z,11.30
2022-11-05T20:24:24.347Z,11.30
2022-11-05T20:26:55.746Z,11.30
2022-11-05T20:29:27.842Z,11.30
2022-11-05T20:31:58.871Z,11.30
2022-11-05T20:34:26.788Z,11.30
2022-11-05T20:36:54.689Z,11.30
